Aérodrome :
LOGIN :

S'inscrire | Disclaimer

   EN    FR    IT 

 










Légende :    VFR   VFR Marginal   IFR   IFR Intensif   IFR Très Intensif
Visi : 
Plafond : 
>= 8 km
>= 3000ft
5 à 8 km
1000 à 3000 ft
1500m à 5 km
500 à 1000 ft
800 à 1500m
200 à 500 ft
< 800m
< 200 ft
Symboles :   Orages  Brouillard  Fortes neiges  Fortes précipitations  Vent > 20 kt
SIGMETs :   Divers  Orages  Givrage  Turbulence  Onde Orograph.  Cendres Volcan.







- Altitude de l'aérodrome : 645 ft
- Code IATA : DLE
- Voir les cartes d'approche


LFGJ - Dole Tavaux

DERNIER METAR :
  • 172300Z AUTO 02005KT 9999 FEW010 BKN042 OVC052 02/M00 Q1018

METARs EXPIRÉS :
  • 172230Z AUTO 33012KT 9999 -RA SCT011 OVC035 03/M00 Q1018
  • 172200Z AUTO 35012KT 9999 -RA OVC029/// ///TCU 03/00 Q1017
  • 172130Z AUTO 33006KT 9999 FEW024 BKN030 OVC035 03/M00 Q1017
  • 172100Z AUTO 22005KT 200V260 9999 BKN039 BKN046 BKN054 03/00 Q1016
  • 172030Z AUTO 19008KT CAVOK 01/M01 Q1016

TAF TAF LFGJ
Valide du 17 à 15h jusqu'au 18 à 00h UTC


171400Z 1715/1724 25011KT 9999 FEW030 BKN035
TEMPO 1715/1722 4000 SHRA SCT020TCU
BECMG 1722/1724 34005KT
Pas de NOTAMs connus pour ce terrain.



MET'MAP, la Météo Aéronautique d'un coup d'oeil ! - Copyright ORBIFLY Décembre 2007 - Disclaimer

ORBIFLY MET'MAP TEAM :

Programmation & Développement : Alexandra Zaïnal
Conception & Développement : Baudouin d'Aumeries
Co-Programmation & Développement : Marc-Olivier Méhu
Soutien technique & logistique : Manuel Goepfert

Contact : metmap@orbifly.com




SOURCES & CREDITS :

   NOAA